createdAt,value
2023-01-09T00:00:57.156Z,7.10
2023-01-09T00:03:23.583Z,7.40
2023-01-09T00:05:50.071Z,7.38
2023-01-09T00:08:16.555Z,7.21
2023-01-09T00:10:42.965Z,7.33
2023-01-09T00:13:14.109Z,7.22
2023-01-09T00:15:41.278Z,7.28
2023-01-09T00:18:16.508Z,7.32
2023-01-09T00:20:42.988Z,7.28
2023-01-09T00:23:09.615Z,7.27
2023-01-09T00:25:36.756Z,7.28
2023-01-09T00:28:03.422Z,7.17
2023-01-09T00:30:29.909Z,7.09
2023-01-09T00:32:56.649Z,7.11
2023-01-09T00:35:25.183Z,7.11
2023-01-09T00:37:51.825Z,7.02
2023-01-09T00:40:19.597Z,6.97
2023-01-09T00:42:51.284Z,7.18
2023-01-09T00:47:52.727Z,7.36
2023-01-09T00:50:23.149Z,7.35
2023-01-09T00:52:51.456Z,7.39
2023-01-09T00:55:18.116Z,7.42
2023-01-09T00:57:44.753Z,7.43
2023-01-09T01:00:12.850Z,7.44
2023-01-09T01:02:39.306Z,7.51
2023-01-09T01:05:25.266Z,7.48
2023-01-09T01:07:52.331Z,7.48
2023-01-09T01:10:24.517Z,7.41
2023-01-09T01:12:51.802Z,7.41
2023-01-09T01:15:19.490Z,7.29
2023-01-09T01:17:48.316Z,7.30
2023-01-09T01:20:19.881Z,7.26
2023-01-09T01:22:46.882Z,7.21
2023-01-09T01:25:15.165Z,7.16
2023-01-09T01:27:41.584Z,7.18
2023-01-09T01:30:11.436Z,7.16
2023-01-09T01:32:39.502Z,7.11
2023-01-09T01:35:07.624Z,7.07
2023-01-09T01:37:35.930Z,7.05
2023-01-09T01:40:03.107Z,7.03
2023-01-09T01:42:29.857Z,7.05
2023-01-09T01:44:58.378Z,7.03
2023-01-09T01:47:52.623Z,6.96
2023-01-09T01:50:19.383Z,6.96
2023-01-09T01:52:52.098Z,6.95
2023-01-09T01:55:19.502Z,6.91
2023-01-09T01:57:49.582Z,6.95
2023-01-09T02:00:18.309Z,6.97
2023-01-09T02:02:47.763Z,6.93
2023-01-09T02:05:22.819Z,6.96
2023-01-09T02:07:49.428Z,6.84
2023-01-09T02:10:16.228Z,6.89
2023-01-09T02:12:42.881Z,6.95
2023-01-09T02:15:13.717Z,6.95
2023-01-09T02:18:07.650Z,6.93
2023-01-09T02:20:43.481Z,6.91
2023-01-09T02:23:29.378Z,6.97
2023-01-09T02:26:23.892Z,6.92
2023-01-09T02:29:40.985Z,6.83
2023-01-09T02:32:35.593Z,6.94
2023-01-09T02:35:26.496Z,6.98
2023-01-09T02:38:11.794Z,6.96
2023-01-09T02:40:53.455Z,6.95
2023-01-09T02:43:24.201Z,6.93
2023-01-09T02:45:50.622Z,6.93
2023-01-09T02:48:17.140Z,7.00
2023-01-09T02:51:09.153Z,7.01
2023-01-09T02:53:56.416Z,6.96
2023-01-09T02:56:30.090Z,7.03
2023-01-09T02:59:18.331Z,6.95
2023-01-09T03:02:04.188Z,6.95
2023-01-09T03:04:44.047Z,6.96
2023-01-09T03:07:45.570Z,7.01
2023-01-09T03:10:22.119Z,6.98
2023-01-09T03:12:52.451Z,6.90
2023-01-09T03:15:24.299Z,6.94
2023-01-09T03:17:51.484Z,6.94
2023-01-09T03:20:22.168Z,6.95
2023-01-09T03:23:04.270Z,6.89
2023-01-09T03:25:31.960Z,6.90
2023-01-09T03:28:01.219Z,6.88
2023-01-09T03:30:29.687Z,6.87
2023-01-09T03:32:57.493Z,6.85
2023-01-09T03:35:24.865Z,6.98
2023-01-09T03:37:51.971Z,7.01
2023-01-09T03:40:19.878Z,6.95
2023-01-09T03:42:46.981Z,7.00
2023-01-09T03:45:13.928Z,7.02
2023-01-09T03:47:40.629Z,7.00
2023-01-09T03:50:07.774Z,7.03
2023-01-09T03:52:37.476Z,7.06
2023-01-09T03:55:04.258Z,7.07
2023-01-09T03:57:30.747Z,6.99
2023-01-09T03:59:57.164Z,7.09
2023-01-09T04:02:23.671Z,7.11
2023-01-09T04:04:50.198Z,7.15
2023-01-09T04:07:16.605Z,7.17
2023-01-09T04:09:43.029Z,7.13
2023-01-09T04:12:09.684Z,7.18
2023-01-09T04:14:44.885Z,7.23
2023-01-09T04:17:11.446Z,7.17
2023-01-09T04:19:39.303Z,7.21
2023-01-09T04:22:05.719Z,7.24
2023-01-09T04:24:32.471Z,7.21
2023-01-09T04:26:59.169Z,7.12
2023-01-09T04:29:25.645Z,7.18
2023-01-09T04:31:52.029Z,7.24
2023-01-09T04:34:18.590Z,7.23
2023-01-09T04:36:44.999Z,7.22
2023-01-09T04:39:11.512Z,7.17
2023-01-09T04:41:52.967Z,7.17
2023-01-09T04:44:28.074Z,7.21
2023-01-09T04:46:56.458Z,7.35
2023-01-09T04:49:23.405Z,7.24
2023-01-09T04:51:49.870Z,7.31
2023-01-09T04:54:16.924Z,7.35
2023-01-09T04:56:48.002Z,7.37
2023-01-09T04:59:14.828Z,7.33
2023-01-09T05:01:41.671Z,7.46
2023-01-09T05:04:08.745Z,7.40
2023-01-09T05:06:35.526Z,7.32
2023-01-09T05:09:02.007Z,7.40
2023-01-09T05:11:28.614Z,7.34
2023-01-09T05:13:55.070Z,7.35
2023-01-09T05:16:22.937Z,7.29
2023-01-09T05:18:49.420Z,7.26
2023-01-09T05:21:16.628Z,7.34
2023-01-09T05:23:43.110Z,7.28
2023-01-09T05:26:09.550Z,7.31
2023-01-09T05:28:35.956Z,7.27
2023-01-09T05:31:02.738Z,7.27
2023-01-09T05:33:29.586Z,7.33
2023-01-09T05:35:56.579Z,7.39
2023-01-09T05:38:23.143Z,7.27
2023-01-09T05:40:53.404Z,7.38
2023-01-09T05:43:19.822Z,7.40
2023-01-09T05:45:46.482Z,7.38
2023-01-09T05:48:12.922Z,7.43
2023-01-09T05:50:39.383Z,7.32
2023-01-09T05:53:06.695Z,7.36
2023-01-09T05:55:34.157Z,7.33
2023-01-09T05:58:00.753Z,7.34
2023-01-09T06:00:27.388Z,7.34
2023-01-09T06:02:56.613Z,7.30
2023-01-09T06:05:23.207Z,7.26
2023-01-09T06:07:49.643Z,7.25
2023-01-09T06:10:17.102Z,6.94
2023-01-09T06:12:48.425Z,7.18
2023-01-09T06:15:18.108Z,7.15
2023-01-09T06:17:44.559Z,7.13
2023-01-09T06:20:11.932Z,7.20
2023-01-09T06:22:38.435Z,7.09
2023-01-09T06:25:05.712Z,7.10
2023-01-09T06:27:32.228Z,7.08
2023-01-09T06:30:02.482Z,7.14
2023-01-09T06:32:28.911Z,7.16
2023-01-09T06:34:55.395Z,7.13
2023-01-09T06:37:21.909Z,6.84
2023-01-09T06:39:48.407Z,7.07
2023-01-09T06:42:14.891Z,7.04
2023-01-09T06:44:41.638Z,7.01
2023-01-09T06:47:08.152Z,6.95
2023-01-09T06:49:35.098Z,6.89
2023-01-09T06:52:05.477Z,6.96
2023-01-09T06:54:32.745Z,6.94
2023-01-09T06:56:59.633Z,6.91
2023-01-09T06:59:26.307Z,6.80
2023-01-09T07:01:53.263Z,6.81
2023-01-09T07:04:22.442Z,6.80
2023-01-09T07:06:49.488Z,6.82
2023-01-09T07:09:15.985Z,6.91
2023-01-09T07:11:42.757Z,6.84
2023-01-09T07:14:09.364Z,6.78
2023-01-09T07:16:35.814Z,6.69
2023-01-09T07:19:02.235Z,6.60
2023-01-09T07:21:28.749Z,6.58
2023-01-09T07:23:55.180Z,6.60
2023-01-09T07:26:22.470Z,6.59
2023-01-09T07:28:48.881Z,6.49
2023-01-09T07:31:15.374Z,6.48
2023-01-09T07:33:41.836Z,6.47
2023-01-09T07:36:11.347Z,6.49
2023-01-09T07:38:37.918Z,6.48
2023-01-09T07:41:04.487Z,6.35
2023-01-09T07:43:31.263Z,6.49
2023-01-09T07:45:57.849Z,6.55
2023-01-09T07:48:24.279Z,6.53
2023-01-09T07:50:50.721Z,6.48
2023-01-09T07:53:17.113Z,6.58
2023-01-09T07:55:44.729Z,6.58
2023-01-09T07:58:11.240Z,6.57
2023-01-09T08:00:38.024Z,6.61
2023-01-09T08:03:05.326Z,6.56
2023-01-09T08:05:31.857Z,6.62
2023-01-09T08:07:58.278Z,6.61
2023-01-09T08:10:24.806Z,6.61
2023-01-09T08:12:51.763Z,6.41
2023-01-09T08:15:18.192Z,6.68
2023-01-09T08:17:46.196Z,6.66
2023-01-09T08:20:15.496Z,6.53
2023-01-09T08:22:43.503Z,6.68
2023-01-09T08:25:12.390Z,6.74
2023-01-09T08:27:39.516Z,6.93
2023-01-09T08:30:06.660Z,7.00
2023-01-09T08:32:33.364Z,7.02
2023-01-09T08:34:59.895Z,7.01
2023-01-09T08:37:26.378Z,6.94
2023-01-09T08:39:53.399Z,7.10
2023-01-09T08:42:39.503Z,7.44
2023-01-09T08:45:29.847Z,7.30
2023-01-09T08:47:59.643Z,7.22
2023-01-09T08:50:26.156Z,7.64
2023-01-09T08:52:52.811Z,7.63
2023-01-09T08:55:19.599Z,7.24
2023-01-09T08:57:52.906Z,7.43
2023-01-09T09:00:23.634Z,7.31
2023-01-09T09:02:54.815Z,7.33
2023-01-09T09:05:22.757Z,7.20
2023-01-09T09:07:50.531Z,7.25
2023-01-09T09:10:17.860Z,7.17
2023-01-09T09:12:44.683Z,7.25
2023-01-09T09:15:25.823Z,7.46
2023-01-09T09:18:00.979Z,7.58
2023-01-09T09:20:38.793Z,7.75
2023-01-09T09:23:06.563Z,7.74
2023-01-09T09:25:33.029Z,7.58
2023-01-09T09:28:01.161Z,7.48
2023-01-09T09:30:30.955Z,7.49
2023-01-09T09:32:57.379Z,7.49
2023-01-09T09:35:24.940Z,7.41
2023-01-09T09:38:00.545Z,7.44
2023-01-09T09:40:42.659Z,7.47
2023-01-09T09:43:47.999Z,7.88
2023-01-09T09:46:34.862Z,7.91
2023-01-09T09:49:14.892Z,8.01
2023-01-09T09:51:50.066Z,7.82
2023-01-09T09:54:25.766Z,7.79
2023-01-09T09:56:56.671Z,7.91
2023-01-09T09:59:27.181Z,7.58
2023-01-09T10:02:06.102Z,7.65
2023-01-09T10:04:35.467Z,7.95
2023-01-09T10:07:06.161Z,7.72
2023-01-09T10:09:45.048Z,7.44
2023-01-09T10:12:17.297Z,7.60
2023-01-09T10:14:43.796Z,7.44
2023-01-09T10:17:25.606Z,7.53
2023-01-09T10:19:52.256Z,7.45
2023-01-09T10:22:46.597Z,7.46
2023-01-09T10:25:21.341Z,7.26
2023-01-09T10:28:06.948Z,7.21
2023-01-09T10:30:46.050Z,7.12
2023-01-09T10:33:18.203Z,6.81
2023-01-09T10:36:05.892Z,6.92
2023-01-09T10:38:38.956Z,7.05
2023-01-09T10:41:25.001Z,7.04
2023-01-09T10:44:00.648Z,7.01
2023-01-09T10:46:59.851Z,7.12
2023-01-09T10:49:26.792Z,7.02
2023-01-09T10:52:00.737Z,7.23
2023-01-09T10:54:29.448Z,7.10
2023-01-09T10:57:00.436Z,7.21
2023-01-09T10:59:27.090Z,7.29
2023-01-09T11:01:53.792Z,7.21
2023-01-09T11:04:32.500Z,7.42
2023-01-09T11:07:02.960Z,7.43
2023-01-09T11:09:59.675Z,7.57
2023-01-09T11:12:31.430Z,7.67
2023-01-09T11:15:28.947Z,7.78
2023-01-09T11:18:16.655Z,7.87
2023-01-09T11:20:43.190Z,7.91
2023-01-09T11:23:23.384Z,7.79
2023-01-09T11:25:55.018Z,7.96
2023-01-09T11:28:23.085Z,7.90
2023-01-09T11:30:57.031Z,7.61
2023-01-09T11:33:26.385Z,7.73
2023-01-09T11:36:04.019Z,7.90
2023-01-09T11:38:33.524Z,7.66
2023-01-09T11:41:04.743Z,7.72
2023-01-09T11:43:35.466Z,7.98
2023-01-09T11:46:07.009Z,7.93
2023-01-09T11:48:35.566Z,7.68
2023-01-09T11:51:06.740Z,7.90
2023-01-09T11:53:48.445Z,7.95
2023-01-09T11:56:17.151Z,7.79
2023-01-09T11:58:44.105Z,7.78
2023-01-09T12:01:45.550Z,7.82
2023-01-09T12:04:25.003Z,7.74
2023-01-09T12:07:25.193Z,7.76
2023-01-09T12:10:20.131Z,7.86
2023-01-09T12:13:02.513Z,7.98
2023-01-09T12:15:33.457Z,7.93
2023-01-09T12:18:31.111Z,7.76
2023-01-09T12:21:26.816Z,7.68
2023-01-09T12:24:03.200Z,8.21
2023-01-09T12:26:54.478Z,8.33
2023-01-09T12:29:50.039Z,7.76
2023-01-09T12:32:46.818Z,8.11
2023-01-09T12:35:40.974Z,8.58
2023-01-09T12:38:25.894Z,8.25
2023-01-09T12:41:09.534Z,8.12
2023-01-09T12:44:08.508Z,8.08
2023-01-09T12:46:44.892Z,7.94
2023-01-09T12:49:28.041Z,7.88
2023-01-09T12:52:10.797Z,7.57
2023-01-09T12:54:45.770Z,7.41
2023-01-09T12:57:25.180Z,7.39
2023-01-09T13:00:00.308Z,7.33
2023-01-09T13:02:42.931Z,7.53
2023-01-09T13:05:18.125Z,7.51
2023-01-09T13:07:47.861Z,7.42
2023-01-09T13:10:22.518Z,7.34
2023-01-09T13:12:50.848Z,7.46
2023-01-09T13:15:35.793Z,7.46
2023-01-09T13:18:20.916Z,7.69
2023-01-09T13:20:56.708Z,7.46
2023-01-09T13:23:46.876Z,7.40
2023-01-09T13:26:22.122Z,7.35
2023-01-09T13:28:54.866Z,7.39
2023-01-09T13:31:37.702Z,7.36
2023-01-09T13:36:55.575Z,7.36
2023-01-09T13:39:32.325Z,7.38
2023-01-09T13:42:23.899Z,7.35
2023-01-09T13:44:55.050Z,7.29
2023-01-09T13:47:28.739Z,7.33
2023-01-09T13:52:24.370Z,7.26
2023-01-09T13:54:58.158Z,7.27
2023-01-09T13:57:29.787Z,7.31
2023-01-09T14:00:17.743Z,7.34
2023-01-09T14:02:46.629Z,7.33
2023-01-09T14:05:37.625Z,7.38
2023-01-09T14:08:14.767Z,7.48
2023-01-09T14:10:44.723Z,7.42
2023-01-09T14:13:20.942Z,7.39
2023-01-09T14:15:49.906Z,7.30
2023-01-09T14:18:31.930Z,7.39
2023-01-09T14:21:04.482Z,7.34
2023-01-09T14:23:51.032Z,7.40
2023-01-09T14:26:21.754Z,7.32
2023-01-09T14:28:48.541Z,7.23
2023-01-09T14:31:32.971Z,7.34
2023-01-09T14:34:31.670Z,7.41
2023-01-09T14:37:01.768Z,7.31
2023-01-09T14:39:32.376Z,7.36
2023-01-09T14:42:08.668Z,7.14
2023-01-09T14:44:49.043Z,7.48
2023-01-09T14:47:24.740Z,7.51
2023-01-09T14:50:06.811Z,7.46
2023-01-09T14:52:39.513Z,7.54
2023-01-09T14:55:29.212Z,7.41
2023-01-09T14:57:57.362Z,7.50
2023-01-09T15:00:24.486Z,7.47
2023-01-09T15:02:53.353Z,7.41
2023-01-09T15:05:26.486Z,7.47
2023-01-09T15:08:06.017Z,7.51
2023-01-09T15:10:37.591Z,7.47
2023-01-09T15:13:07.844Z,7.22
2023-01-09T15:15:35.853Z,7.44
2023-01-09T15:18:07.898Z,7.44
2023-01-09T15:20:35.420Z,7.47
2023-01-09T15:23:05.020Z,7.45
2023-01-09T15:25:39.307Z,7.42
2023-01-09T15:28:41.090Z,7.47
2023-01-09T15:31:14.013Z,7.47
2023-01-09T15:33:42.084Z,7.31
2023-01-09T15:36:16.110Z,7.43
2023-01-09T15:38:43.802Z,7.35
2023-01-09T15:41:35.357Z,7.33
2023-01-09T15:44:04.254Z,7.39
2023-01-09T15:46:32.883Z,7.41
2023-01-09T15:49:00.247Z,7.39
2023-01-09T15:51:27.319Z,7.36
2023-01-09T15:53:57.524Z,7.43
2023-01-09T15:56:30.367Z,7.35
2023-01-09T15:58:59.332Z,7.35
2023-01-09T16:01:32.356Z,7.36
2023-01-09T16:04:11.859Z,7.37
2023-01-09T16:06:47.797Z,7.36
2023-01-09T16:09:32.077Z,7.28
2023-01-09T16:12:01.769Z,7.08
2023-01-09T16:14:38.562Z,7.19
2023-01-09T16:17:08.924Z,7.16
2023-01-09T16:19:41.424Z,7.09
2023-01-09T16:22:25.939Z,6.96
2023-01-09T16:24:58.391Z,6.95
2023-01-09T16:27:37.213Z,6.88
2023-01-09T16:30:08.677Z,6.88
2023-01-09T16:32:45.927Z,6.62
2023-01-09T16:35:18.576Z,6.70
2023-01-09T16:37:45.508Z,6.71
2023-01-09T16:40:15.774Z,6.77
2023-01-09T16:43:01.965Z,6.60
2023-01-09T16:45:33.760Z,6.68
2023-01-09T16:48:01.978Z,6.55
2023-01-09T16:50:29.029Z,6.51
2023-01-09T16:52:56.929Z,6.46
2023-01-09T16:55:23.428Z,6.30
2023-01-09T16:57:49.884Z,6.14
2023-01-09T17:00:18.883Z,6.28
2023-01-09T17:02:45.482Z,6.12
2023-01-09T17:05:12.049Z,6.11
2023-01-09T17:07:38.568Z,6.06
2023-01-09T17:10:06.247Z,5.95
2023-01-09T17:12:32.695Z,5.72
2023-01-09T17:15:00.909Z,5.62
2023-01-09T17:17:27.381Z,5.58
2023-01-09T17:19:54.077Z,5.43
2023-01-09T17:22:20.708Z,5.49
2023-01-09T17:25:08.651Z,5.42
2023-01-09T17:27:55.817Z,5.31
2023-01-09T17:30:22.851Z,5.31
2023-01-09T17:32:49.468Z,5.17
2023-01-09T17:35:16.276Z,5.20
2023-01-09T17:37:43.233Z,5.17
2023-01-09T17:40:22.259Z,5.15
2023-01-09T17:42:48.751Z,5.24
2023-01-09T17:45:15.516Z,5.19
2023-01-09T17:47:42.025Z,5.22
2023-01-09T17:50:18.427Z,5.28
2023-01-09T17:52:44.979Z,5.33
2023-01-09T17:55:11.470Z,5.19
2023-01-09T17:57:37.937Z,5.21
2023-01-09T18:00:06.466Z,5.15
2023-01-09T18:02:33.019Z,5.04
2023-01-09T18:04:59.672Z,5.04
2023-01-09T18:07:26.106Z,4.99
2023-01-09T18:09:52.564Z,5.01
2023-01-09T18:12:19.380Z,4.87
2023-01-09T18:14:47.382Z,4.87
2023-01-09T18:17:14.425Z,4.77
2023-01-09T18:19:40.923Z,4.76
2023-01-09T18:22:07.381Z,4.61
2023-01-09T18:24:33.787Z,4.55
2023-01-09T18:27:00.272Z,4.59
2023-01-09T18:29:26.841Z,4.51
2023-01-09T18:31:53.621Z,4.52
2023-01-09T18:34:20.173Z,4.52
2023-01-09T18:36:47.389Z,4.46
2023-01-09T18:39:14.417Z,4.37
2023-01-09T18:41:41.026Z,4.44
2023-01-09T18:44:07.598Z,4.42
2023-01-09T18:46:34.041Z,4.25
2023-01-09T18:49:03.050Z,4.34
2023-01-09T18:51:29.996Z,4.33
2023-01-09T18:53:57.032Z,4.32
2023-01-09T18:56:25.403Z,4.32
2023-01-09T18:59:02.534Z,4.33
2023-01-09T19:01:31.048Z,4.28
2023-01-09T19:04:00.125Z,4.34
2023-01-09T19:06:28.872Z,4.24
2023-01-09T19:08:56.713Z,4.36
2023-01-09T19:11:23.974Z,4.27
2023-01-09T19:13:51.174Z,4.32
2023-01-09T19:16:19.162Z,4.31
2023-01-09T19:18:45.986Z,4.34
2023-01-09T19:21:15.512Z,4.34
2023-01-09T19:23:43.698Z,4.43
2023-01-09T19:26:18.423Z,4.48
2023-01-09T19:28:46.603Z,4.50
2023-01-09T19:31:14.202Z,4.61
2023-01-09T19:33:40.662Z,4.62
2023-01-09T19:36:07.546Z,4.65
2023-01-09T19:38:34.300Z,4.65
2023-01-09T19:41:15.973Z,4.66
2023-01-09T19:43:42.418Z,4.70
2023-01-09T19:46:15.394Z,4.71
2023-01-09T19:48:44.688Z,4.68
2023-01-09T19:51:13.206Z,4.77
2023-01-09T19:53:40.169Z,4.86
2023-01-09T19:56:10.196Z,4.54
2023-01-09T19:58:36.747Z,4.83
2023-01-09T20:01:12.163Z,4.84
2023-01-09T20:03:46.605Z,4.66
2023-01-09T20:06:18.901Z,4.92
2023-01-09T20:08:47.652Z,4.95
2023-01-09T20:11:15.566Z,4.89
2023-01-09T20:13:42.833Z,4.87
2023-01-09T20:16:15.712Z,4.97
2023-01-09T20:18:42.270Z,4.93
2023-01-09T20:21:09.078Z,5.05
2023-01-09T20:23:36.110Z,4.95
2023-01-09T20:26:03.705Z,4.93
2023-01-09T20:28:30.202Z,4.91
2023-01-09T20:30:57.622Z,4.97
2023-01-09T20:33:24.402Z,5.03
2023-01-09T20:35:51.043Z,5.10
2023-01-09T20:38:17.784Z,5.16
2023-01-09T20:40:44.214Z,5.18
2023-01-09T20:43:12.576Z,5.14
2023-01-09T20:45:40.279Z,5.15
2023-01-09T20:48:08.012Z,5.08
2023-01-09T20:50:34.436Z,5.02
2023-01-09T20:53:00.838Z,5.11
2023-01-09T20:55:27.220Z,5.10
2023-01-09T20:57:53.613Z,5.14
2023-01-09T21:00:20.709Z,5.13
2023-01-09T21:02:47.956Z,5.16
2023-01-09T21:05:14.508Z,5.15
2023-01-09T21:07:40.916Z,5.17
2023-01-09T21:10:07.738Z,5.13
2023-01-09T21:12:37.686Z,5.17
2023-01-09T21:15:06.478Z,5.10
2023-01-09T21:17:37.918Z,5.13
2023-01-09T21:20:11.001Z,5.09
2023-01-09T21:22:37.940Z,5.04
2023-01-09T21:25:05.731Z,5.08
2023-01-09T21:27:35.936Z,5.05
2023-01-09T21:30:03.966Z,5.08
2023-01-09T21:32:33.146Z,5.13
2023-01-09T21:35:04.160Z,5.12
2023-01-09T21:37:32.506Z,5.09
2023-01-09T21:39:59.964Z,5.17
2023-01-09T21:42:44.962Z,5.03
2023-01-09T21:45:34.496Z,5.06
2023-01-09T21:48:05.871Z,5.07
2023-01-09T21:50:38.638Z,4.96
2023-01-09T21:53:05.050Z,4.96
2023-01-09T21:55:34.370Z,5.11
2023-01-09T21:58:01.586Z,5.09
2023-01-09T22:00:28.524Z,5.18
2023-01-09T22:02:55.066Z,5.17
2023-01-09T22:05:22.008Z,5.17
2023-01-09T22:07:48.412Z,5.19
2023-01-09T22:10:14.899Z,5.12
2023-01-09T22:13:01.309Z,5.22
2023-01-09T22:15:27.745Z,5.20
2023-01-09T22:17:54.195Z,5.16
2023-01-09T22:20:20.618Z,5.18
2023-01-09T22:22:49.399Z,4.88
2023-01-09T22:25:16.154Z,5.09
2023-01-09T22:27:42.556Z,5.35
2023-01-09T22:30:10.667Z,5.34
2023-01-09T22:32:40.698Z,5.30
2023-01-09T22:35:07.594Z,5.33
2023-01-09T22:37:37.523Z,5.36
2023-01-09T22:40:04.366Z,5.31
2023-01-09T22:42:30.887Z,5.35
2023-01-09T22:44:57.387Z,5.32
2023-01-09T22:47:23.767Z,5.19
2023-01-09T22:49:53.957Z,5.33
2023-01-09T22:52:21.136Z,5.33
2023-01-09T22:54:48.209Z,5.22
2023-01-09T22:57:14.857Z,5.26
2023-01-09T22:59:42.372Z,5.27
2023-01-09T23:02:08.880Z,5.25
2023-01-09T23:04:35.336Z,5.34
2023-01-09T23:07:02.052Z,5.36
2023-01-09T23:09:28.465Z,5.36
2023-01-09T23:12:03.611Z,5.38
2023-01-09T23:14:35.893Z,5.40
2023-01-09T23:17:04.223Z,5.34
2023-01-09T23:19:32.366Z,5.39
2023-01-09T23:22:00.418Z,5.37
2023-01-09T23:24:28.020Z,5.35
2023-01-09T23:26:57.509Z,5.30
2023-01-09T23:29:24.802Z,5.28
2023-01-09T23:31:53.616Z,5.25
2023-01-09T23:34:25.663Z,5.29
2023-01-09T23:36:54.269Z,5.21
2023-01-09T23:39:21.088Z,5.29
2023-01-09T23:42:06.765Z,5.26
2023-01-09T23:44:33.249Z,5.42
2023-01-09T23:46:59.658Z,5.27
2023-01-09T23:49:26.082Z,5.31
2023-01-09T23:51:52.555Z,5.24
2023-01-09T23:54:19.014Z,5.37
2023-01-09T23:56:45.413Z,5.29
2023-01-09T23:59:14.199Z,5.37
